EGPFEIDL

Guest
Details From EGPF - Glasgow
To EIDL - Donegal
Flight Number -
Tags generated
Created
Modified
Stats Distance 142 nm / 263 km
Max Altitude 10,400 ft / 3,170 m
Waypoints 3
Social Downloads 3
Likes 0
Share VATSIM

Download

Looking for another format? Having issues loading an existing format? Contact us
Advertisement - Login to hide

Notes

Basic altitude profile: - Ascent Rate: 2500ft/min - Ascent Speed: 250kts - Cruise Altitude: 35000ft - Cruise Speed: 420kts - Descent Rate: 1500ft/min - Descent Speed: 250kts Options: - Use NATs: yes - Use PACOTS: yes - Use low airways: yes - Use high airways: yes

Route

EGPF TURLU EIDL

ID Type Via Altitude Latitude Longitude Leg Dist Tot Dist Heading (true) Name
O EGPF APT - 0 ft / 0 m 55.87173˚ -4.43365˚ - 0 nm - Glasgow
TURLU FIX - 10,400 ft / 3,170 m 55.28250˚ -6.98806˚ 93 nm 93 nm 249° / 247° -
O EIDL APT - 0 ft / 0 m 55.04420˚ -8.34104˚ 48 nm 142 nm 253° / 252° Donegal

Altitude Profile

Advertisement - Login to hide

EGPF

Details ICAO EGPF (GLA)
Name Glasgow
Region United Kingdom
Timezone Europe/London (UTC+0.0)
Stats Elevation 26 ft / 8 m (AMSL)
Location 55.871728° -4.433648°
Runways 1
Magnetic Variation 2.731° W

METAR

EGPF 161720Z AUTO 24004KT 9999 SCT049 M02/M03 Q1020

Decode

TAF

TAF TAF EGPF 161102Z 1612/1712 VRB03KT 9999 FEW035 PROB40 TEMPO 1612/1618 7000 PROB40 1621/1702 0600 FZFG BKN001 TEMPO 1702/1710 6000 RA BKN006 PROB40 TEMPO 1702/1707 2000 RADZ BR BKN004 BECMG 1706/1709 21010KT BECMG 1709/1712 27010KT

Decode

Departure Runways

ID Width Length Bearing (true) Bearing (mag) Surface Threshold Offset Overrun Length
05 151 ft / 46 m 8,721 ft / 2,658 m 46.34° 49.07° Asphalt 0 ft / 0 m 499 ft / 152 m
23 151 ft / 46 m 8,721 ft / 2,658 m 226.37° 229.10° Asphalt 1,004 ft / 306 m 0 ft / 0 m

EIDL

Details ICAO EIDL (CFN)
Name Donegal
Region Ireland
Timezone Unknown (UTC+0.0)
Stats Elevation 29 ft / 9 m (AMSL)
Location 55.044196° -8.341036°
Runways 1
Magnetic Variation 4.207° W

METAR

EIDL 161730Z 22006KT 9999 FEW033 BKN039 OVC049 08/06 Q1020

Decode

TAF

Not found

Destination Runways

ID Width Length Bearing (true) Bearing (mag) Surface Threshold Offset Overrun Length
03 98 ft / 30 m 4,906 ft / 1,495 m 20.15° 24.36° Asphalt 656 ft / 200 m 0 ft / 0 m
21 98 ft / 30 m 4,906 ft / 1,495 m 200.16° 204.37° Asphalt 656 ft / 200 m 0 ft / 0 m

Approach Navaids

Runway Type Ident Frequency Range Bearing (true) Bearing (mag) Slope Elevation
21 Localiser IFN 110.30 MHz 18 nm / 33 km 200.16° 204.37° - 29 ft / 9 m (AMSL)
21 DME IFN 110.30 MHz 18 nm / 33 km - - - 33 ft / 10 m (AMSL)

Popular Alternatives